Cratis — C6BV3 — position and weather

sailwx.info

Track history (hours):
 
Tides and Currents Weather Stations Pressure Air Temp Water Temp Dewpoint Dewpoint Depression Visibility Wind Speed Wind Dir Waves Ship Positions

Cratis

Last reported at 2018-Jun-19 16:48 UTC. Time now 2018-Jun-21 02:49 UTC.
Position N 29°15' W 094°35'.

Length 226 m; draft 12.2 m.

Type: Tanker. MMSI: 311000374.

Date/timePositionNaut miles runAvg speedWind from/ knotsBaromVisibWave heightAir tempDewpointWater temp
2018-Jun-19 16:48N 29°15' W 094°35'3 9.3
2018-Jun-19 16:28N 29°18' W 094°37'510.7
2018-Jun-19 16:00N 29°21' W 094°42'510.4
2018-Jun-19 15:30N 29°21' W 094°48'510.9
2018-Jun-19 15:00N 29°26' W 094°50'611.5
2018-Jun-19 14:30N 29°31' W 094°53'611.1
2018-Jun-19 14:01N 29°36' W 094°57'5 9.5
2018-Jun-19 13:29N 29°41' W 094°59'  
2018-Jun-16 21:10N 29°43' W 095°01'2 9.1
2018-Jun-16 20:54N 29°41' W 094°59'410.2
2018-Jun-16 20:29N 29°37' W 094°57'511.1
2018-Jun-16 20:00N 29°33' W 094°54'611.9
2018-Jun-16 19:28N 29°27' W 094°51'613.0
2018-Jun-16 19:00N 29°22' W 094°48'714.3
2018-Jun-16 18:30N 29°20' W 094°40'4 8.0
2018-Jun-16 17:59N 29°18' W 094°35'3 0.2
2018-Jun-16 04:58N 29°20' W 094°33'3 3.7
2018-Jun-16 04:13N 29°18' W 094°31'2 6.6
2018-Jun-16 03:55N 29°16' W 094°31'3 6.4
2018-Jun-16 03:30N 29°14' W 094°30'3 6.6
2018-Jun-16 02:59N 29°12' W 094°27'2411.2
2018-Jun-16 00:53N 28°48' W 094°25'  
2018-Jun-10 02:47N 09°36' W 079°56'  
Track history (hours):
 
Tides and Currents Weather Stations Pressure Air Temp Water Temp Dewpoint Dewpoint Depression Visibility Wind Speed Wind Dir Waves Ship Positions

Cratis

Last reported at 2018-Jun-19 16:48 UTC. Time now 2018-Jun-21 02:49 UTC.
Position N 29°15' W 094°35'.

Length 226 m; draft 12.2 m.

Type: Tanker. MMSI: 311000374.

Date/timePositionNaut miles runAvg speedWind from/ knotsBaromVisibWave heightAir tempDewpointWater temp
2018-Jun-19 16:48N 29°15' W 094°35'3 9.3
2018-Jun-19 16:28N 29°18' W 094°37'510.7
2018-Jun-19 16:00N 29°21' W 094°42'510.4
2018-Jun-19 15:30N 29°21' W 094°48'510.9
2018-Jun-19 15:00N 29°26' W 094°50'611.5
2018-Jun-19 14:30N 29°31' W 094°53'611.1
2018-Jun-19 14:01N 29°36' W 094°57'5 9.5
2018-Jun-19 13:29N 29°41' W 094°59'  
2018-Jun-16 21:10N 29°43' W 095°01'2 9.1
2018-Jun-16 20:54N 29°41' W 094°59'410.2
2018-Jun-16 20:29N 29°37' W 094°57'511.1
2018-Jun-16 20:00N 29°33' W 094°54'611.9
2018-Jun-16 19:28N 29°27' W 094°51'613.0
2018-Jun-16 19:00N 29°22' W 094°48'714.3
2018-Jun-16 18:30N 29°20' W 094°40'4 8.0
2018-Jun-16 17:59N 29°18' W 094°35'3 0.2
2018-Jun-16 04:58N 29°20' W 094°33'3 3.7
2018-Jun-16 04:13N 29°18' W 094°31'2 6.6
2018-Jun-16 03:55N 29°16' W 094°31'3 6.4
2018-Jun-16 03:30N 29°14' W 094°30'3 6.6
2018-Jun-16 02:59N 29°12' W 094°27'2411.2
2018-Jun-16 00:53N 28°48' W 094°25'  
2018-Jun-10 02:47N 09°36' W 079°56'  

Dump ship's entire track history